createdAt,value
2017-07-25T00:00:35.950Z,15.52
2017-07-25T00:01:35.941Z,15.42
2017-07-25T00:02:35.943Z,15.55
2017-07-25T00:03:35.942Z,15.54
2017-07-25T00:04:35.942Z,15.61
2017-07-25T00:05:35.943Z,15.55
2017-07-25T00:06:35.654Z,15.59
2017-07-25T00:07:35.948Z,15.59
2017-07-25T00:08:35.947Z,15.59
2017-07-25T00:09:35.948Z,15.59
2017-07-25T00:10:35.949Z,15.61
2017-07-25T00:11:35.951Z,15.57
2017-07-25T00:12:35.948Z,15.58
2017-07-25T00:13:35.948Z,15.55
2017-07-25T00:14:35.953Z,15.49
2017-07-25T00:15:35.951Z,15.64
2017-07-25T00:16:35.958Z,15.62
2017-07-25T00:17:35.952Z,15.52
2017-07-25T00:18:35.655Z,15.65
2017-07-25T00:19:35.959Z,15.65
2017-07-25T00:20:35.653Z,15.64
2017-07-25T00:21:35.953Z,15.61
2017-07-25T00:22:35.959Z,15.58
2017-07-25T00:23:35.954Z,15.7
2017-07-25T00:24:35.671Z,15.55
2017-07-25T00:25:35.660Z,15.52
2017-07-25T00:26:35.959Z,15.52
2017-07-25T00:27:35.665Z,15.58
2017-07-25T00:28:35.960Z,15.52
2017-07-25T00:29:35.957Z,15.54
2017-07-25T00:30:35.958Z,15.42
2017-07-25T00:31:35.979Z,15.57
2017-07-25T00:32:35.663Z,15.57
2017-07-25T00:33:35.956Z,15.55
2017-07-25T00:34:35.964Z,15.61
2017-07-25T00:35:35.965Z,15.61
2017-07-25T00:36:35.962Z,15.62
2017-07-25T00:37:35.966Z,15.55
2017-07-25T00:38:35.364Z,15.54
2017-07-25T00:39:35.969Z,15.55
2017-07-25T00:40:35.970Z,15.49
2017-07-25T00:41:35.681Z,15.46
2017-07-25T00:42:35.972Z,15.52
2017-07-25T00:43:35.969Z,15.4
2017-07-25T00:44:35.675Z,15.42
2017-07-25T00:45:35.967Z,15.35
2017-07-25T00:46:35.968Z,15.36
2017-07-25T00:47:35.969Z,15.33
2017-07-25T00:48:35.675Z,15.42
2017-07-25T00:49:35.976Z,15.39
2017-07-25T00:50:35.983Z,15.25
2017-07-25T00:51:35.673Z,15.29
2017-07-25T00:52:35.976Z,15.33
2017-07-25T00:53:35.981Z,15.31
2017-07-25T00:54:35.684Z,15.28
2017-07-25T00:55:35.974Z,15.33
2017-07-25T00:56:35.986Z,15.31
2017-07-25T00:57:35.976Z,15.27
2017-07-25T00:58:35.681Z,15.28
2017-07-25T00:59:35.679Z,15.11
2017-07-25T01:00:35.686Z,15.11
2017-07-25T01:01:35.978Z,15.17
2017-07-25T01:02:35.683Z,15.04
2017-07-25T01:03:35.704Z,15.06
2017-07-25T01:04:35.690Z,15.07
2017-07-25T01:05:35.980Z,15
2017-07-25T01:06:35.984Z,15.06
2017-07-25T01:07:35.976Z,15
2017-07-25T01:08:35.682Z,14.99
2017-07-25T01:09:35.976Z,14.97
2017-07-25T01:10:35.683Z,14.97
2017-07-25T01:11:35.978Z,14.92
2017-07-25T01:12:35.678Z,14.99
2017-07-25T01:13:35.991Z,14.99
2017-07-25T01:14:35.379Z,14.99
2017-07-25T01:15:35.682Z,14.97
2017-07-25T01:16:35.979Z,14.94
2017-07-25T01:17:35.982Z,15
2017-07-25T01:18:35.982Z,15
2017-07-25T01:19:35.979Z,14.97
2017-07-25T01:20:36.017Z,14.99
2017-07-25T01:21:35.986Z,14.97
2017-07-25T01:22:35.981Z,15
2017-07-25T01:23:35.985Z,15.02
2017-07-25T01:24:35.989Z,15
2017-07-25T01:25:35.981Z,15.02
2017-07-25T01:26:35.981Z,15.03
2017-07-25T01:27:35.989Z,15.11
2017-07-25T01:28:35.982Z,15.09
2017-07-25T01:29:36.985Z,15.02
2017-07-25T01:30:35.985Z,15.07
2017-07-25T01:31:35.985Z,15.03
2017-07-25T01:32:35.988Z,15.1
2017-07-25T01:33:35.984Z,15.09
2017-07-25T01:34:35.987Z,15.17
2017-07-25T01:35:35.981Z,15.18
2017-07-25T01:36:35.985Z,15.21
2017-07-25T01:37:36.036Z,15.24
2017-07-25T01:38:35.986Z,15.27
2017-07-25T01:39:35.987Z,15.21
2017-07-25T01:40:35.691Z,15.27
2017-07-25T01:41:35.694Z,15.27
2017-07-25T01:42:35.987Z,15.31
2017-07-25T01:43:35.989Z,15.28
2017-07-25T01:44:35.738Z,15.35
2017-07-25T01:45:35.987Z,15.25
2017-07-25T01:46:35.985Z,15.35
2017-07-25T01:47:36.001Z,15.24
2017-07-25T01:48:35.990Z,15.31
2017-07-25T01:49:35.989Z,15.28
2017-07-25T01:50:35.988Z,15.29
2017-07-25T01:51:35.695Z,15.29
2017-07-25T01:52:35.386Z,15.35
2017-07-25T01:53:36.028Z,15.31
2017-07-25T01:54:35.691Z,15.24
2017-07-25T01:55:35.997Z,15.22
2017-07-25T01:56:35.701Z,15.29
2017-07-25T01:57:35.994Z,15.28
2017-07-25T01:58:36.012Z,15.37
2017-07-25T01:59:36.744Z,15.33
2017-07-25T02:00:35.990Z,15.37
2017-07-25T02:01:35.697Z,15.29
2017-07-25T02:02:35.991Z,15.29
2017-07-25T02:03:35.991Z,15.39
2017-07-25T02:04:35.993Z,15.37
2017-07-25T02:05:35.998Z,15.25
2017-07-25T02:06:35.998Z,15.31
2017-07-25T02:07:36.000Z,15.35
2017-07-25T02:08:35.395Z,15.27
2017-07-25T02:09:36.002Z,15.27
2017-07-25T02:10:36.014Z,15.19
2017-07-25T02:11:36.000Z,15.1
2017-07-25T02:12:35.998Z,15.24
2017-07-25T02:13:36.002Z,15.25
2017-07-25T02:14:37.099Z,15.11
2017-07-25T02:15:36.005Z,15.14
2017-07-25T02:16:36.000Z,15.14
2017-07-25T02:17:36.006Z,15.1
2017-07-25T02:18:36.005Z,15.11
2017-07-25T02:19:36.004Z,15.15
2017-07-25T02:20:35.999Z,15.15
2017-07-25T02:21:36.005Z,15.09
2017-07-25T02:22:36.001Z,15.19
2017-07-25T02:23:36.011Z,15.14
2017-07-25T02:24:36.017Z,15.21
2017-07-25T02:25:36.007Z,15.15
2017-07-25T02:26:36.004Z,15.18
2017-07-25T02:27:36.008Z,15.18
2017-07-25T02:28:36.005Z,15.22
2017-07-25T02:29:36.006Z,15.15
2017-07-25T02:30:36.014Z,15.14
2017-07-25T02:31:36.020Z,15.18
2017-07-25T02:32:36.008Z,15.14
2017-07-25T02:33:36.005Z,15.17
2017-07-25T02:34:36.009Z,15.11
2017-07-25T02:35:36.009Z,15.17
2017-07-25T02:36:35.707Z,15.14
2017-07-25T02:37:35.714Z,15.15
2017-07-25T02:38:36.010Z,15.19
2017-07-25T02:39:35.718Z,15.22
2017-07-25T02:40:35.711Z,15.28
2017-07-25T02:41:35.712Z,15.11
2017-07-25T02:42:36.009Z,15.21
2017-07-25T02:43:36.012Z,15.19
2017-07-25T02:44:35.729Z,15.17
2017-07-25T02:45:36.063Z,15.25
2017-07-25T02:46:36.017Z,15.28
2017-07-25T02:47:36.014Z,15.21
2017-07-25T02:48:36.018Z,15.19
2017-07-25T02:49:36.012Z,15.21
2017-07-25T02:50:35.717Z,15.27
2017-07-25T02:51:35.726Z,15.31
2017-07-25T02:52:36.021Z,15.28
2017-07-25T02:53:36.018Z,15.24
2017-07-25T02:54:35.719Z,15.27
2017-07-25T02:55:35.720Z,15.21
2017-07-25T02:56:36.016Z,15.14
2017-07-25T02:57:36.018Z,15.27
2017-07-25T02:58:36.018Z,15.17
2017-07-25T02:59:35.722Z,15.1
2017-07-25T03:00:38.974Z,15.22
2017-07-25T03:01:36.018Z,15.1
2017-07-25T03:02:36.024Z,15.18
2017-07-25T03:03:36.024Z,15.17
2017-07-25T03:04:36.021Z,15.22
2017-07-25T03:05:36.037Z,15.21
2017-07-25T03:06:36.021Z,15.21
2017-07-25T03:07:36.019Z,15.15
2017-07-25T03:08:36.021Z,15.17
2017-07-25T03:09:36.023Z,15.19
2017-07-25T03:10:36.021Z,15.22
2017-07-25T03:11:35.726Z,15.14
2017-07-25T03:12:36.025Z,15.15
2017-07-25T03:13:36.037Z,15.17
2017-07-25T03:14:36.021Z,15.14
2017-07-25T03:15:36.328Z,15.21
2017-07-25T03:16:36.025Z,15.21
2017-07-25T03:17:36.026Z,15.03
2017-07-25T03:18:36.026Z,15.04
2017-07-25T03:19:36.036Z,15.02
2017-07-25T03:20:36.033Z,15.03
2017-07-25T03:21:36.028Z,15.04
2017-07-25T03:22:36.031Z,15.1
2017-07-25T03:23:36.058Z,15.14
2017-07-25T03:24:36.026Z,15.07
2017-07-25T03:25:36.030Z,15.11
2017-07-25T03:26:36.034Z,15.04
2017-07-25T03:27:35.749Z,15.11
2017-07-25T03:28:36.032Z,15.07
2017-07-25T03:29:36.035Z,15.02
2017-07-25T03:30:37.398Z,15.07
2017-07-25T03:31:35.741Z,15.03
2017-07-25T03:32:36.034Z,14.99
2017-07-25T03:33:36.036Z,14.91
2017-07-25T03:34:36.049Z,14.96
2017-07-25T03:35:35.736Z,14.97
2017-07-25T03:36:36.039Z,14.97
2017-07-25T03:37:35.741Z,14.97
2017-07-25T03:38:36.036Z,14.88
2017-07-25T03:39:36.035Z,14.86
2017-07-25T03:40:36.038Z,14.88
2017-07-25T03:41:36.036Z,14.82
2017-07-25T03:42:36.034Z,14.82
2017-07-25T03:43:36.045Z,14.84
2017-07-25T03:44:36.036Z,14.79
2017-07-25T03:45:36.041Z,14.81
2017-07-25T03:46:36.038Z,14.72
2017-07-25T03:47:36.037Z,14.73
2017-07-25T03:48:36.043Z,14.69
2017-07-25T03:49:36.044Z,14.73
2017-07-25T03:50:35.745Z,14.77
2017-07-25T03:51:36.039Z,14.81
2017-07-25T03:52:36.046Z,14.86
2017-07-25T03:53:36.040Z,14.78
2017-07-25T03:54:36.039Z,14.79
2017-07-25T03:55:35.750Z,14.84
2017-07-25T03:56:36.040Z,14.88
2017-07-25T03:57:36.041Z,14.84
2017-07-25T03:58:35.750Z,14.88
2017-07-25T03:59:36.039Z,14.82
2017-07-25T04:00:36.040Z,14.88
2017-07-25T04:01:35.773Z,14.89
2017-07-25T04:02:35.740Z,14.88
2017-07-25T04:03:36.042Z,15.02
2017-07-25T04:04:36.038Z,14.99
2017-07-25T04:05:36.044Z,14.96
2017-07-25T04:06:35.754Z,15.04
2017-07-25T04:07:35.752Z,14.97
2017-07-25T04:08:36.061Z,14.92
2017-07-25T04:09:35.755Z,14.99
2017-07-25T04:10:36.055Z,14.97
2017-07-25T04:11:36.043Z,14.94
2017-07-25T04:12:36.044Z,14.97
2017-07-25T04:13:36.043Z,14.96
2017-07-25T04:14:36.046Z,15
2017-07-25T04:15:36.056Z,14.96
2017-07-25T04:16:35.795Z,15.02
2017-07-25T04:17:36.048Z,14.94
2017-07-25T04:18:36.053Z,15.04
2017-07-25T04:19:35.753Z,15.04
2017-07-25T04:20:35.757Z,15.11
2017-07-25T04:21:36.052Z,15.07
2017-07-25T04:22:36.048Z,15.04
2017-07-25T04:23:35.762Z,15.09
2017-07-25T04:24:36.049Z,15.15
2017-07-25T04:25:36.138Z,15.21
2017-07-25T04:26:36.049Z,15.21
2017-07-25T04:27:35.781Z,15.21
2017-07-25T04:28:36.051Z,15.15
2017-07-25T04:29:36.050Z,15.24
2017-07-25T04:30:36.054Z,15.28
2017-07-25T04:31:39.902Z,15.31
2017-07-25T04:32:35.766Z,15.25
2017-07-25T04:33:36.058Z,15.35
2017-07-25T04:34:36.078Z,15.36
2017-07-25T04:35:36.058Z,15.43
2017-07-25T04:36:35.763Z,15.49
2017-07-25T04:37:36.057Z,15.47
2017-07-25T04:38:36.056Z,15.47
2017-07-25T04:39:36.060Z,15.49
2017-07-25T04:40:36.057Z,15.43
2017-07-25T04:41:35.771Z,15.58
2017-07-25T04:42:36.057Z,15.57
2017-07-25T04:43:36.057Z,15.54
2017-07-25T04:44:36.063Z,15.54
2017-07-25T04:45:35.776Z,15.59
2017-07-25T04:46:35.823Z,15.65
2017-07-25T04:47:36.060Z,15.62
2017-07-25T04:48:36.067Z,15.57
2017-07-25T04:49:36.063Z,15.55
2017-07-25T04:50:36.064Z,15.55
2017-07-25T04:51:36.065Z,15.58
2017-07-25T04:52:36.063Z,15.54
2017-07-25T04:53:35.775Z,15.55
2017-07-25T04:54:35.777Z,15.51
2017-07-25T04:55:36.071Z,15.58
2017-07-25T04:56:36.067Z,15.65
2017-07-25T04:57:36.071Z,15.52
2017-07-25T04:58:36.078Z,15.58
2017-07-25T04:59:36.098Z,15.55
2017-07-25T05:00:35.785Z,15.52
2017-07-25T05:01:37.878Z,15.54
2017-07-25T05:02:35.800Z,15.57
2017-07-25T05:03:36.074Z,15.58
2017-07-25T05:04:36.073Z,15.58
2017-07-25T05:05:36.080Z,15.52
2017-07-25T05:06:36.076Z,15.59
2017-07-25T05:07:36.073Z,15.54
2017-07-25T05:08:36.078Z,15.54
2017-07-25T05:09:36.084Z,15.52
2017-07-25T05:10:36.097Z,15.54
2017-07-25T05:11:36.083Z,15.7
2017-07-25T05:12:35.784Z,15.73
2017-07-25T05:13:35.793Z,15.75
2017-07-25T05:14:35.789Z,15.65
2017-07-25T05:15:36.085Z,15.75
2017-07-25T05:16:35.794Z,15.72
2017-07-25T05:17:36.083Z,15.77
2017-07-25T05:18:36.088Z,15.75
2017-07-25T05:19:35.790Z,15.76
2017-07-25T05:20:35.794Z,15.82
2017-07-25T05:21:36.087Z,15.88
2017-07-25T05:22:36.112Z,15.84
2017-07-25T05:23:36.093Z,15.88
2017-07-25T05:24:35.795Z,15.84
2017-07-25T05:25:36.093Z,15.7
2017-07-25T05:26:36.125Z,15.76
2017-07-25T05:27:36.090Z,15.75
2017-07-25T05:28:35.808Z,15.75
2017-07-25T05:29:36.096Z,15.83
2017-07-25T05:30:36.098Z,15.75
2017-07-25T05:31:36.094Z,15.77
2017-07-25T05:32:36.097Z,15.73
2017-07-25T05:33:36.098Z,15.77
2017-07-25T05:34:36.096Z,15.59
2017-07-25T05:35:36.097Z,15.72
2017-07-25T05:36:36.103Z,15.68
2017-07-25T05:37:35.810Z,15.55
2017-07-25T05:38:35.804Z,15.67
2017-07-25T05:39:36.100Z,15.68
2017-07-25T05:40:36.103Z,15.7
2017-07-25T05:41:36.103Z,15.79
2017-07-25T05:42:36.102Z,15.82
2017-07-25T05:43:36.107Z,15.84
2017-07-25T05:44:36.126Z,15.9
2017-07-25T05:45:36.105Z,16.01
2017-07-25T05:46:36.104Z,16.05
2017-07-25T05:47:37.356Z,16.04
2017-07-25T05:48:36.107Z,16.04
2017-07-25T05:49:35.820Z,16.04
2017-07-25T05:50:35.815Z,16.08
2017-07-25T05:51:36.116Z,16.12
2017-07-25T05:52:36.116Z,16.02
2017-07-25T05:53:36.114Z,16.08
2017-07-25T05:54:36.112Z,16.09
2017-07-25T05:55:36.122Z,16.04
2017-07-25T05:56:36.112Z,16.04
2017-07-25T05:57:35.823Z,16.05
2017-07-25T05:58:36.117Z,16.1
2017-07-25T05:59:35.515Z,16.15
2017-07-25T06:00:35.826Z,16.26
2017-07-25T06:01:36.117Z,16.26
2017-07-25T06:02:37.369Z,16.38
2017-07-25T06:03:36.126Z,16.41
2017-07-25T06:04:36.124Z,16.51
2017-07-25T06:05:36.125Z,16.54
2017-07-25T06:06:36.123Z,16.53
2017-07-25T06:07:36.131Z,16.46
2017-07-25T06:08:36.132Z,16.5
2017-07-25T06:09:35.838Z,16.38
2017-07-25T06:10:36.134Z,16.47
2017-07-25T06:11:36.134Z,16.51
2017-07-25T06:12:36.131Z,16.42
2017-07-25T06:13:35.840Z,16.41
2017-07-25T06:14:36.140Z,16.36
2017-07-25T06:15:36.142Z,16.32
2017-07-25T06:16:35.534Z,16.33
2017-07-25T06:17:36.192Z,16.32
2017-07-25T06:18:36.142Z,16.38
2017-07-25T06:19:36.141Z,16.46
2017-07-25T06:20:35.861Z,16.43
2017-07-25T06:21:36.145Z,16.43
2017-07-25T06:22:36.145Z,16.38
2017-07-25T06:23:36.147Z,16.51
2017-07-25T06:24:36.149Z,16.53
2017-07-25T06:25:35.853Z,16.54
2017-07-25T06:26:35.853Z,16.58
2017-07-25T06:27:36.150Z,16.65
2017-07-25T06:28:36.156Z,16.57
2017-07-25T06:29:35.859Z,16.56
2017-07-25T06:30:36.158Z,16.6
2017-07-25T06:31:36.158Z,16.6
2017-07-25T06:32:37.166Z,16.53
2017-07-25T06:33:36.161Z,16.66
2017-07-25T06:34:36.161Z,16.74
2017-07-25T06:35:36.163Z,16.69
2017-07-25T06:36:36.166Z,16.75
2017-07-25T06:37:35.863Z,16.68
2017-07-25T06:38:36.166Z,16.69
2017-07-25T06:39:36.185Z,16.66
2017-07-25T06:40:36.171Z,16.61
2017-07-25T06:41:36.174Z,16.58
2017-07-25T06:42:36.169Z,16.53
2017-07-25T06:43:36.176Z,16.64
2017-07-25T06:44:36.174Z,16.71
2017-07-25T06:45:36.176Z,16.72
2017-07-25T06:46:35.887Z,16.79
2017-07-25T06:47:36.179Z,16.87
2017-07-25T06:48:36.183Z,16.81
2017-07-25T06:49:35.886Z,16.87
2017-07-25T06:50:36.185Z,16.96
2017-07-25T06:51:36.181Z,16.94
2017-07-25T06:52:36.214Z,16.93
2017-07-25T06:53:36.185Z,16.97
2017-07-25T06:54:35.889Z,16.96
2017-07-25T06:55:36.193Z,16.93
2017-07-25T06:56:36.191Z,16.81
2017-07-25T06:57:36.194Z,16.94
2017-07-25T06:58:36.203Z,16.91
2017-07-25T06:59:35.901Z,16.93
2017-07-25T07:00:36.193Z,16.97
2017-07-25T07:01:36.208Z,16.94
2017-07-25T07:02:36.210Z,16.94
2017-07-25T07:03:36.303Z,16.93
2017-07-25T07:04:36.203Z,16.97
2017-07-25T07:05:36.213Z,16.81
2017-07-25T07:06:36.210Z,16.81
2017-07-25T07:07:36.214Z,16.9
2017-07-25T07:08:36.219Z,16.79
2017-07-25T07:09:36.212Z,16.75
2017-07-25T07:10:36.216Z,16.66
2017-07-25T07:11:36.216Z,16.71
2017-07-25T07:12:36.225Z,16.72
2017-07-25T07:13:36.215Z,16.68
2017-07-25T07:14:36.275Z,16.76
2017-07-25T07:15:36.223Z,16.72
2017-07-25T07:16:36.221Z,16.79
2017-07-25T07:17:36.220Z,16.84
2017-07-25T07:18:39.673Z,16.79
2017-07-25T07:19:36.225Z,16.84
2017-07-25T07:20:36.224Z,16.78
2017-07-25T07:21:36.232Z,16.74
2017-07-25T07:22:36.230Z,16.71
2017-07-25T07:23:36.241Z,16.75
2017-07-25T07:24:36.230Z,16.66
2017-07-25T07:25:36.229Z,16.64
2017-07-25T07:26:35.646Z,16.53
2017-07-25T07:27:36.238Z,16.65
2017-07-25T07:28:35.934Z,16.74
2017-07-25T07:29:36.234Z,16.75
2017-07-25T07:30:36.242Z,16.76
2017-07-25T07:31:35.947Z,16.86
2017-07-25T07:32:36.245Z,16.87
2017-07-25T07:33:39.501Z,16.96
2017-07-25T07:34:36.248Z,16.97
2017-07-25T07:35:35.946Z,17.09
2017-07-25T07:36:36.249Z,17.22
2017-07-25T07:37:36.260Z,17.3
2017-07-25T07:38:36.251Z,17.42
2017-07-25T07:39:36.252Z,17.63
2017-07-25T07:40:36.251Z,17.72
2017-07-25T07:41:36.288Z,17.76
2017-07-25T07:42:36.256Z,17.83
2017-07-25T07:43:36.474Z,17.92
2017-07-25T07:44:35.958Z,17.92
2017-07-25T07:45:36.279Z,17.9
2017-07-25T07:46:36.343Z,17.9
2017-07-25T07:47:36.349Z,17.87
2017-07-25T07:48:36.262Z,17.86
2017-07-25T07:49:36.321Z,17.74
2017-07-25T07:50:36.269Z,17.8
2017-07-25T07:51:35.998Z,17.74
2017-07-25T07:52:36.278Z,17.71
2017-07-25T07:53:36.275Z,17.72
2017-07-25T07:54:36.294Z,17.76
2017-07-25T07:55:36.296Z,17.63
2017-07-25T07:56:35.998Z,17.74
2017-07-25T07:57:36.295Z,17.57
2017-07-25T07:58:36.301Z,17.52
2017-07-25T07:59:37.099Z,17.56
2017-07-25T08:00:36.301Z,17.57
2017-07-25T08:01:36.299Z,17.59
2017-07-25T08:02:35.699Z,17.51
2017-07-25T08:03:35.701Z,17.51
2017-07-25T08:04:40.449Z,17.39
2017-07-25T08:05:36.304Z,17.36
2017-07-25T08:06:36.305Z,17.3
2017-07-25T08:07:36.013Z,17.39
2017-07-25T08:08:36.307Z,17.45
2017-07-25T08:09:36.309Z,17.33
2017-07-25T08:10:36.310Z,17.33
2017-07-25T08:11:36.308Z,17.34
2017-07-25T08:12:36.017Z,17.29
2017-07-25T08:13:36.020Z,17.31
2017-07-25T08:14:36.324Z,17.38
2017-07-25T08:15:36.321Z,17.33
2017-07-25T08:16:36.324Z,17.26
2017-07-25T08:17:36.322Z,17.27
2017-07-25T08:18:36.324Z,17.24
2017-07-25T08:19:36.327Z,17.2
2017-07-25T08:20:36.035Z,17.2
2017-07-25T08:21:36.325Z,17.14
2017-07-25T08:22:35.737Z,17.09
2017-07-25T08:23:36.028Z,17.09
2017-07-25T08:24:36.035Z,16.97
2017-07-25T08:25:36.091Z,16.89
2017-07-25T08:26:36.399Z,16.87
2017-07-25T08:27:36.339Z,16.91
2017-07-25T08:28:36.353Z,16.97
2017-07-25T08:29:36.351Z,17.11
2017-07-25T08:30:36.370Z,17.2
2017-07-25T08:31:36.048Z,17.33
2017-07-25T08:32:36.357Z,17.52
2017-07-25T08:33:36.371Z,17.65
2017-07-25T08:34:36.358Z,17.86
2017-07-25T08:35:36.365Z,18.1
2017-07-25T08:36:36.359Z,18.29
2017-07-25T08:37:36.355Z,18.28
2017-07-25T08:38:36.357Z,18.34
2017-07-25T08:39:36.364Z,18.41
2017-07-25T08:40:36.368Z,18.47
2017-07-25T08:41:35.766Z,18.56
2017-07-25T08:42:36.373Z,18.63
2017-07-25T08:43:36.078Z,18.74
2017-07-25T08:44:36.401Z,18.81
2017-07-25T08:45:36.381Z,19.04
2017-07-25T08:46:36.379Z,19.18
2017-07-25T08:47:36.392Z,19.56
2017-07-25T08:48:36.389Z,19.71
2017-07-25T08:49:36.393Z,19.73
2017-07-25T08:50:36.141Z,19.71
2017-07-25T08:51:36.098Z,19.49
2017-07-25T08:52:36.398Z,19.45
2017-07-25T08:53:36.402Z,19.39
2017-07-25T08:54:36.411Z,19.41
2017-07-25T08:55:36.427Z,19.44
2017-07-25T08:56:36.426Z,19.3
2017-07-25T08:57:36.423Z,19.14
2017-07-25T08:58:36.425Z,19.08
2017-07-25T08:59:36.427Z,18.98
2017-07-25T09:00:36.204Z,18.81
2017-07-25T09:01:36.426Z,18.8
2017-07-25T09:02:36.134Z,18.66
2017-07-25T09:03:36.461Z,18.58
2017-07-25T09:04:36.526Z,18.65
2017-07-25T09:05:36.383Z,18.68
2017-07-25T09:06:36.453Z,18.58
2017-07-25T09:07:36.454Z,18.65
2017-07-25T09:08:36.455Z,18.49
2017-07-25T09:09:36.454Z,18.35
2017-07-25T09:10:36.458Z,18.33
2017-07-25T09:11:36.164Z,18.29
2017-07-25T09:12:36.461Z,18.29
2017-07-25T09:13:35.864Z,18.23
2017-07-25T09:14:36.472Z,18.28
2017-07-25T09:15:36.465Z,18.2
2017-07-25T09:16:36.468Z,18.16
2017-07-25T09:17:36.473Z,18.04
2017-07-25T09:18:36.491Z,17.92
2017-07-25T09:19:36.190Z,17.76
2017-07-25T09:20:37.581Z,17.82
2017-07-25T09:21:36.482Z,17.85
2017-07-25T09:22:36.513Z,17.86
2017-07-25T09:23:36.186Z,17.87
2017-07-25T09:24:36.498Z,17.94
2017-07-25T09:25:36.190Z,17.92
2017-07-25T09:26:36.195Z,18
2017-07-25T09:27:36.195Z,18.03
2017-07-25T09:28:36.498Z,18.03
2017-07-25T09:29:36.208Z,18.01
2017-07-25T09:30:36.523Z,18.07
2017-07-25T09:31:36.510Z,18.04
2017-07-25T09:32:36.211Z,17.94
2017-07-25T09:33:36.220Z,17.92
2017-07-25T09:34:36.531Z,17.94
2017-07-25T09:35:37.512Z,17.94
2017-07-25T09:36:36.529Z,17.94
2017-07-25T09:37:36.527Z,17.97
2017-07-25T09:38:36.529Z,17.94
2017-07-25T09:39:36.528Z,18.05
2017-07-25T09:40:36.537Z,18.08
2017-07-25T09:41:36.533Z,18.18
2017-07-25T09:42:35.932Z,18.15
2017-07-25T09:43:36.542Z,18.2
2017-07-25T09:44:36.234Z,18.26
2017-07-25T09:45:36.541Z,18.23
2017-07-25T09:46:36.250Z,18.13
2017-07-25T09:47:36.538Z,18.03
2017-07-25T09:48:36.542Z,17.89
2017-07-25T09:49:36.249Z,17.78
2017-07-25T09:50:36.627Z,17.82
2017-07-25T09:51:36.258Z,17.67
2017-07-25T09:52:36.573Z,17.63
2017-07-25T09:53:36.589Z,17.68
2017-07-25T09:54:36.572Z,17.65
2017-07-25T09:55:36.597Z,17.56
2017-07-25T09:56:36.284Z,17.68
2017-07-25T09:57:36.281Z,17.63
2017-07-25T09:58:36.573Z,17.68
2017-07-25T09:59:36.573Z,17.76
2017-07-25T10:00:36.586Z,18.04
2017-07-25T10:01:36.579Z,18.22
2017-07-25T10:02:36.286Z,18.33
2017-07-25T10:03:36.264Z,18.52
2017-07-25T10:04:36.304Z,18.55
2017-07-25T10:05:36.490Z,18.53
2017-07-25T10:06:36.278Z,18.6
2017-07-25T10:07:36.609Z,18.74
2017-07-25T10:08:36.279Z,18.73
2017-07-25T10:09:36.603Z,18.7
2017-07-25T10:10:36.303Z,18.7
2017-07-25T10:11:36.608Z,18.71
2017-07-25T10:12:36.302Z,18.77
2017-07-25T10:13:36.759Z,18.86
2017-07-25T10:14:36.610Z,18.84
2017-07-25T10:15:36.620Z,18.95
2017-07-25T10:16:36.623Z,18.86
2017-07-25T10:17:36.301Z,18.92
2017-07-25T10:18:36.645Z,18.78
2017-07-25T10:19:36.673Z,18.77
2017-07-25T10:20:39.332Z,18.73
2017-07-25T10:21:36.638Z,18.66
2017-07-25T10:22:36.637Z,18.65
2017-07-25T10:23:36.642Z,18.55
2017-07-25T10:24:36.364Z,18.53
2017-07-25T10:25:36.667Z,18.34
2017-07-25T10:26:36.644Z,18.19
2017-07-25T10:27:36.665Z,18.07
2017-07-25T10:28:36.661Z,18.16
2017-07-25T10:29:36.339Z,18.1
2017-07-25T10:30:36.670Z,18.2
2017-07-25T10:31:36.675Z,18.29
2017-07-25T10:32:36.675Z,18.37
2017-07-25T10:33:36.675Z,18.49
2017-07-25T10:34:36.046Z,18.58
2017-07-25T10:35:36.664Z,18.62
2017-07-25T10:36:36.668Z,18.68
2017-07-25T10:37:36.684Z,18.7
2017-07-25T10:38:36.688Z,18.63
2017-07-25T10:39:36.673Z,18.66
2017-07-25T10:40:36.697Z,18.38
2017-07-25T10:41:36.683Z,18.47
2017-07-25T10:42:36.369Z,18.41
2017-07-25T10:43:36.368Z,18.35
2017-07-25T10:44:36.693Z,18.37
2017-07-25T10:45:36.392Z,18.34
2017-07-25T10:46:36.688Z,18.23
2017-07-25T10:47:36.417Z,18.22
2017-07-25T10:48:36.404Z,18.22
2017-07-25T10:49:36.741Z,18.23
2017-07-25T10:50:36.419Z,18.1
2017-07-25T10:51:36.934Z,18.11
2017-07-25T10:52:36.392Z,18.03
2017-07-25T10:53:36.710Z,17.97
2017-07-25T10:54:36.393Z,17.89
2017-07-25T10:55:36.414Z,17.92
2017-07-25T10:56:36.719Z,17.79
2017-07-25T10:57:36.732Z,17.9
2017-07-25T10:58:36.718Z,17.85
2017-07-25T10:59:36.419Z,17.85
2017-07-25T11:00:36.733Z,17.9
2017-07-25T11:01:36.432Z,17.82
2017-07-25T11:02:36.733Z,17.79
2017-07-25T11:03:36.418Z,17.64
2017-07-25T11:04:36.729Z,17.52
2017-07-25T11:05:36.746Z,17.39
2017-07-25T11:06:38.530Z,17.31
2017-07-25T11:07:36.739Z,17.22
2017-07-25T11:08:36.745Z,17.24
2017-07-25T11:09:36.745Z,17.22
2017-07-25T11:10:36.741Z,17.27
2017-07-25T11:11:36.749Z,17.29
2017-07-25T11:12:36.747Z,17.27
2017-07-25T11:13:36.748Z,17.33
2017-07-25T11:14:36.748Z,17.33
2017-07-25T11:15:36.756Z,17.3
2017-07-25T11:16:36.749Z,17.38
2017-07-25T11:17:36.441Z,17.36
2017-07-25T11:18:36.751Z,17.41
2017-07-25T11:19:36.764Z,17.46
2017-07-25T11:20:36.767Z,17.57
2017-07-25T11:21:36.497Z,17.59
2017-07-25T11:22:36.454Z,17.57
2017-07-25T11:23:36.762Z,17.52
2017-07-25T11:24:36.778Z,17.51
2017-07-25T11:25:36.159Z,17.57
2017-07-25T11:26:37.573Z,17.64
2017-07-25T11:27:36.768Z,17.64
2017-07-25T11:28:36.781Z,17.65
2017-07-25T11:29:36.785Z,17.57
2017-07-25T11:30:36.785Z,17.71
2017-07-25T11:31:36.166Z,17.67
2017-07-25T11:32:36.796Z,17.72
2017-07-25T11:33:36.814Z,17.68
2017-07-25T11:34:36.804Z,17.7
2017-07-25T11:35:36.798Z,17.68
2017-07-25T11:36:37.936Z,17.57
2017-07-25T11:37:36.804Z,17.49
2017-07-25T11:38:36.187Z,17.39
2017-07-25T11:39:36.494Z,17.34
2017-07-25T11:40:36.792Z,17.23
2017-07-25T11:41:36.522Z,17.19
2017-07-25T11:42:36.811Z,17.12
2017-07-25T11:43:36.808Z,17.11
2017-07-25T11:44:36.499Z,17.15
2017-07-25T11:45:36.506Z,17.2
2017-07-25T11:46:36.522Z,17.3
2017-07-25T11:47:36.812Z,17.41
2017-07-25T11:48:36.822Z,17.46
2017-07-25T11:49:36.855Z,17.33
2017-07-25T11:50:36.526Z,17.41
2017-07-25T11:51:36.824Z,17.36
2017-07-25T11:52:36.822Z,17.49
2017-07-25T11:53:36.825Z,17.51
2017-07-25T11:54:36.214Z,17.54
2017-07-25T11:55:36.514Z,17.65
2017-07-25T11:56:36.824Z,17.67
2017-07-25T11:57:36.832Z,17.7
2017-07-25T11:58:36.837Z,17.68
2017-07-25T11:59:36.535Z,17.71
2017-07-25T12:00:37.251Z,17.68
2017-07-25T12:01:38.701Z,17.72
2017-07-25T12:02:36.540Z,17.65
2017-07-25T12:03:36.859Z,17.64
2017-07-25T12:04:36.865Z,17.65
2017-07-25T12:05:36.852Z,17.59
2017-07-25T12:06:36.538Z,17.51
2017-07-25T12:07:36.846Z,17.54
2017-07-25T12:08:36.849Z,17.49
2017-07-25T12:09:36.540Z,17.46
2017-07-25T12:10:36.238Z,17.49
2017-07-25T12:11:36.868Z,17.36
2017-07-25T12:12:36.544Z,17.45
2017-07-25T12:13:36.555Z,17.36
2017-07-25T12:14:36.858Z,17.33
2017-07-25T12:15:36.857Z,17.51
2017-07-25T12:16:36.871Z,17.27
2017-07-25T12:17:36.577Z,17.38
2017-07-25T12:18:36.866Z,17.39
2017-07-25T12:19:36.872Z,17.34
2017-07-25T12:20:36.560Z,17.34
2017-07-25T12:21:36.571Z,17.38
2017-07-25T12:22:36.672Z,17.49
2017-07-25T12:23:36.896Z,17.54
2017-07-25T12:24:36.577Z,17.54
2017-07-25T12:25:36.897Z,17.54
2017-07-25T12:26:36.894Z,17.6
2017-07-25T12:27:36.617Z,17.64
2017-07-25T12:28:36.901Z,17.68
2017-07-25T12:29:36.894Z,17.65
2017-07-25T12:30:36.581Z,17.72
2017-07-25T12:31:36.894Z,17.67
2017-07-25T12:32:36.303Z,17.54
2017-07-25T12:33:36.911Z,17.59
2017-07-25T12:34:36.671Z,17.48
2017-07-25T12:35:36.903Z,17.41
2017-07-25T12:36:36.911Z,17.36
2017-07-25T12:37:40.151Z,17.38
2017-07-25T12:38:36.924Z,17.26
2017-07-25T12:39:36.909Z,17.27
2017-07-25T12:40:36.606Z,17.2
2017-07-25T12:41:36.915Z,17.16
2017-07-25T12:42:36.613Z,17.23
2017-07-25T12:43:36.937Z,17.22
2017-07-25T12:44:36.929Z,17.2
2017-07-25T12:45:36.623Z,17.22
2017-07-25T12:46:36.916Z,17.22
2017-07-25T12:47:36.924Z,17.23
2017-07-25T12:48:36.934Z,17.33
2017-07-25T12:49:36.923Z,17.38
2017-07-25T12:50:36.922Z,17.46
2017-07-25T12:51:36.634Z,17.48
2017-07-25T12:52:36.924Z,17.44
2017-07-25T12:53:36.941Z,17.52
2017-07-25T12:54:36.632Z,17.46